Time;durP1;ratioP1;P1;durP2;ratioP2;P2;SDS_P1;SDS_P2;PMS_P1;PMS_P2;Temp;Humidity;BMP_temperature;BMP_pressure;BME280_temperature;BME280_humidity;BME280_pressure;Samples;Min_cycle;Max_cycle;Signal;HPM_P1;HPM_P2
2023/12/15 00:03:20;;;;;;;;;;;;;;;9.05;81.75;102286.91;10379998;28;96937;-87
2023/12/15 00:08:24;;;;;;;9.50;5.75;;;;;;;9.04;82.13;102298.28;10386618;28;97304;-87
2023/12/15 00:13:27;;;;;;;9.88;6.25;;;;;;;9.02;82.56;102310.53;10416256;28;97368;-87
2023/12/15 00:18:32;;;;;;;11.88;6.65;;;;;;;8.96;82.38;102304.44;10379996;28;96922;-87
2023/12/15 00:23:35;;;;;;;10.82;6.05;;;;;;;8.93;82.14;102309.69;10378015;28;96740;-86
2023/12/15 00:28:39;;;;;;;13.70;6.68;;;;;;;8.90;82.57;102310.53;10378908;28;96698;-87
2023/12/15 00:33:43;;;;;;;10.77;6.20;;;;;;;8.87;82.96;102320.16;10376849;28;97375;-87
2023/12/15 00:38:47;;;;;;;11.30;5.50;;;;;;;8.93;82.42;102321.03;10378225;28;97521;-86
2023/12/15 00:43:50;;;;;;;11.50;6.30;;;;;;;8.94;82.16;102322.81;10377687;28;96723;-87
2023/12/15 00:48:58;;;;;;;12.55;6.57;;;;;;;8.92;81.58;102321.94;10378201;28;96548;-87
2023/12/15 00:54:01;;;;;;;14.80;6.57;;;;;;;8.89;82.31;102323.69;10377743;28;97056;-87
2023/12/15 00:59:05;;;;;;;9.93;5.90;;;;;;;8.92;81.33;102323.66;10377591;28;96870;-85
2023/12/15 01:04:09;;;;;;;10.65;6.13;;;;;;;8.94;82.05;102322.81;10377605;28;96735;-86
2023/12/15 01:09:13;;;;;;;9.95;5.55;;;;;;;8.94;81.68;102322.81;10378078;28;96883;-87
2023/12/15 01:14:16;;;;;;;10.93;5.80;;;;;;;8.94;81.30;102314.03;10377389;28;97085;-86
2023/12/15 01:19:21;;;;;;;14.13;6.63;;;;;;;8.95;81.51;102316.66;10377176;28;96686;-87
2023/12/15 01:24:25;;;;;;;9.88;5.75;;;;;;;8.91;80.85;102317.53;10375900;28;96894;-87
2023/12/15 01:29:28;;;;;;;12.25;6.28;;;;;;;8.86;81.54;102321.91;10376700;28;96653;-87
2023/12/15 01:34:33;;;;;;;10.88;5.95;;;;;;;8.88;81.81;102307.03;10386010;22;97638;-87
2023/12/15 01:39:36;;;;;;;11.32;6.13;;;;;;;8.77;81.63;102294.81;10474416;27;96775;-86
2023/12/15 01:44:41;;;;;;;10.45;5.75;;;;;;;8.73;82.34;102288.69;10456055;27;96914;-87
2023/12/15 01:49:47;;;;;;;10.53;5.30;;;;;;;8.77;82.07;102298.31;10459320;27;97006;-86
2023/12/15 01:54:50;;;;;;;13.23;6.20;;;;;;;8.75;81.92;102286.03;10480776;27;96811;-86
2023/12/15 01:59:54;;;;;;;11.55;5.10;;;;;;;8.74;81.21;102277.28;10460144;27;96611;-87
2023/12/15 02:04:59;;;;;;;11.13;5.68;;;;;;;8.78;81.41;102268.53;10460628;27;97361;-86
2023/12/15 02:10:03;;;;;;;9.15;5.30;;;;;;;8.76;80.76;102270.28;10466820;27;96705;-86
2023/12/15 02:15:09;;;;;;;8.60;4.97;;;;;;;8.72;81.00;102273.78;10465875;27;97155;-86
2023/12/15 02:20:14;;;;;;;10.68;5.25;;;;;;;8.72;81.14;102275.56;10466306;27;97244;-87
2023/12/15 02:25:19;;;;;;;10.82;5.35;;;;;;;8.68;81.31;102276.41;10466489;27;97362;-87
2023/12/15 02:30:22;;;;;;;9.35;5.50;;;;;;;8.66;81.86;102267.66;10465042;27;96864;-88
2023/12/15 02:35:27;;;;;;;8.45;4.93;;;;;;;8.66;81.54;102272.91;10461573;27;97595;-86
2023/12/15 02:40:32;;;;;;;9.93;4.93;;;;;;;8.70;81.09;102274.69;10466167;27;96648;-87
2023/12/15 02:45:35;;;;;;;8.98;4.70;;;;;;;8.69;81.65;102271.16;10460132;27;96687;-87
2023/12/15 02:50:39;;;;;;;8.15;4.88;;;;;;;8.74;80.70;102261.53;10460934;27;96535;-87
2023/12/15 02:55:44;;;;;;;9.05;4.68;;;;;;;8.75;80.52;102271.19;10459971;27;96715;-86
2023/12/15 03:00:47;;;;;;;9.27;4.43;;;;;;;8.69;81.26;102268.53;10459857;27;96924;-87
2023/12/15 03:05:51;;;;;;;8.85;4.45;;;;;;;8.67;81.39;102285.19;10457868;27;96764;-86
2023/12/15 03:10:57;;;;;;;10.35;5.05;;;;;;;8.71;80.97;102274.66;10459980;27;96756;-87
2023/12/15 03:16:05;;;;;;;6.38;4.38;;;;;;;8.74;81.32;102272.03;10459547;27;96957;-87
2023/12/15 03:21:09;;;;;;;5.70;4.10;;;;;;;8.70;80.64;102283.44;10457030;27;97101;-87
2023/12/15 03:26:16;;;;;;;9.35;4.93;;;;;;;8.70;81.14;102278.19;10459099;27;96831;-87
2023/12/15 03:31:21;;;;;;;9.90;4.63;;;;;;;8.61;81.40;102285.16;10459334;27;96665;-87
2023/12/15 03:36:26;;;;;;;;;;;;;;;8.57;80.98;102279.03;10458216;27;96874;-87
2023/12/15 03:41:33;;;;;;;12.15;5.07;;;;;;;8.54;81.82;102286.03;10459570;27;97185;-87
2023/12/15 03:46:38;;;;;;;9.93;5.30;;;;;;;8.55;81.06;102275.53;10458062;27;96773;-87
2023/12/15 03:51:43;;;;;;;10.02;5.25;;;;;;;8.53;81.29;102269.41;10458465;27;97038;-87
2023/12/15 03:56:56;;;;;;;9.75;5.13;;;;;;;8.54;81.07;102260.66;10456960;27;96764;-86
2023/12/15 04:02:00;;;;;;;10.25;5.03;;;;;;;8.46;81.30;102270.31;10457810;27;96775;-86
2023/12/15 04:07:05;;;;;;;8.00;4.50;;;;;;;8.40;81.30;102264.16;10457884;27;96966;-87
2023/12/15 04:12:12;;;;;;;9.75;4.93;;;;;;;8.39;81.58;102273.78;10455468;27;96923;-87
2023/12/15 04:17:16;;;;;;;7.97;4.63;;;;;;;8.34;81.69;102280.75;10458466;27;97153;-87
2023/12/15 04:22:22;;;;;;;7.97;4.68;;;;;;;8.36;82.06;102267.66;10457273;27;96610;-87
2023/12/15 04:27:30;;;;;;;;;;;;;;;8.29;82.48;102277.25;10456842;27;96566;-87
2023/12/15 04:32:34;;;;;;;7.10;4.07;;;;;;;8.28;82.41;102270.25;10457857;27;96789;-87
2023/12/15 04:37:38;;;;;;;8.57;4.90;;;;;;;8.24;82.22;102280.75;10456199;27;97062;-87
2023/12/15 04:42:45;;;;;;;7.27;4.13;;;;;;;8.25;82.21;102266.75;10456922;27;96742;-88
2023/12/15 04:47:50;;;;;;;9.13;4.97;;;;;;;8.25;82.07;102264.13;10453794;27;96626;-87
2023/12/15 04:52:54;;;;;;;10.65;5.10;;;;;;;8.27;82.43;102265.00;10456433;27;96664;-87
2023/12/15 04:58:00;;;;;;;7.97;4.10;;;;;;;8.26;82.08;102272.00;10454245;27;97314;-88
2023/12/15 05:03:05;;;;;;;6.22;3.85;;;;;;;8.23;82.30;102279.88;10456035;27;96638;-86
2023/12/15 05:08:09;;;;;;;;;;;;;;;8.18;82.09;102280.72;10456442;27;96844;-87
2023/12/15 05:13:16;;;;;;;9.57;4.60;;;;;;;8.18;82.32;102284.22;10456230;27;96647;-86
2023/12/15 05:18:22;;;;;;;8.30;4.60;;;;;;;8.17;82.86;102289.47;10455618;27;96711;-87
2023/12/15 05:23:26;;;;;;;8.13;4.43;;;;;;;8.10;82.45;102290.31;10455169;27;97199;-87
2023/12/15 05:28:32;;;;;;;6.93;4.33;;;;;;;8.13;82.94;102291.22;10455956;27;97424;-88
2023/12/15 05:33:37;;;;;;;6.22;4.05;;;;;;;8.10;82.61;102292.94;10454698;27;96717;-87
2023/12/15 05:38:42;;;;;;;6.33;3.50;;;;;;;8.10;82.68;102290.31;10453125;27;96752;-87
2023/12/15 05:43:48;;;;;;;7.80;4.22;;;;;;;8.15;82.64;102294.69;10454256;27;96820;-87
2023/12/15 05:48:52;;;;;;;4.82;3.30;;;;;;;8.21;82.47;102294.72;10454654;27;97398;-88
2023/12/15 05:53:57;;;;;;;10.00;4.32;;;;;;;8.21;82.14;102299.97;10454079;27;96645;-87
2023/12/15 05:59:04;;;;;;;7.68;4.28;;;;;;;8.23;82.14;102299.97;10454927;27;96617;-87
2023/12/15 06:04:08;;;;;;;5.25;3.40;;;;;;;8.27;82.58;102294.75;10454544;27;97112;-87
2023/12/15 06:09:12;;;;;;;11.48;3.38;;;;;;;8.34;81.94;102304.34;10454035;27;97493;-87
2023/12/15 06:14:20;;;;;;;5.63;3.40;;;;;;;8.34;81.99;102301.72;10454502;27;97395;-87
2023/12/15 06:19:24;;;;;;;7.40;3.20;;;;;;;8.33;81.96;102305.25;10453880;27;96744;-87
2023/12/15 06:24:29;;;;;;;9.93;4.27;;;;;;;8.33;82.08;102314.84;10453568;27;96503;-87
2023/12/15 06:29:35;;;;;;;5.28;3.17;;;;;;;8.33;81.84;102315.72;10451679;27;96936;-87
2023/12/15 06:34:43;;;;;;;7.20;3.42;;;;;;;8.31;81.91;102304.34;10453133;27;97027;-87
2023/12/15 06:39:47;;;;;;;4.68;2.95;;;;;;;8.33;81.24;102309.59;10453620;27;97288;-87
2023/12/15 06:44:53;;;;;;;7.53;3.33;;;;;;;8.39;81.18;102309.63;10453262;27;97183;-86
2023/12/15 06:49:57;;;;;;;5.80;2.90;;;;;;;8.37;80.96;102312.25;10453287;27;96916;-87
2023/12/15 06:55:03;;;;;;;5.90;3.77;;;;;;;8.43;80.82;102321.88;10460085;27;97137;-86
2023/12/15 07:00:11;;;;;;;5.03;3.22;;;;;;;8.57;80.70;102326.25;10460571;27;97301;-86
2023/12/15 07:05:15;;;;;;;5.13;3.00;;;;;;;8.57;80.70;102310.53;10460073;27;96782;-87
2023/12/15 07:10:22;;;;;;;5.63;3.30;;;;;;;8.61;79.67;102312.28;10459904;27;96515;-86
2023/12/15 07:15:29;;;;;;;3.28;2.20;;;;;;;8.74;79.77;102311.41;10459387;27;97107;-85
2023/12/15 07:20:34;;;;;;;3.28;1.70;;;;;;;8.83;78.60;102324.53;10458198;27;96634;-86
2023/12/15 07:25:39;;;;;;;4.30;2.57;;;;;;;8.80;79.27;102319.31;10459073;27;96580;-87
2023/12/15 07:30:47;;;;;;;5.60;3.00;;;;;;;8.72;79.32;102334.16;10459211;27;97346;-87
2023/12/15 07:35:53;;;;;;;6.45;2.50;;;;;;;8.69;79.62;102338.50;10458246;27;97201;-86
2023/12/15 07:40:58;;;;;;;4.20;2.60;;;;;;;8.71;79.00;102344.66;10458562;27;96693;-86
2023/12/15 07:46:05;;;;;;;4.63;2.63;;;;;;;8.71;78.50;102348.16;10458959;27;97085;-87
2023/12/15 07:51:17;;;;;;;6.38;2.95;;;;;;;8.76;78.48;102348.16;10458537;27;96876;-85
2023/12/15 07:56:24;;;;;;;4.75;2.50;;;;;;;8.79;79.16;102359.53;10456207;27;96844;-87
2023/12/15 08:01:30;;;;;;;5.90;3.15;;;;;;;8.77;79.66;102370.91;10457840;27;97018;-87
2023/12/15 08:06:37;;;;;;;5.07;2.22;;;;;;;8.77;79.32;102381.41;10456939;27;96579;-87
2023/12/15 08:11:42;;;;;;;3.95;2.55;;;;;;;8.86;79.02;102384.91;10456118;27;96714;-87
2023/12/15 08:16:48;;;;;;;5.35;2.13;;;;;;;8.79;79.63;102387.56;10457599;27;97139;-86
2023/12/15 08:21:52;;;;;;;4.97;2.70;;;;;;;8.86;79.29;102397.19;10457032;27;96660;-87
2023/12/15 08:26:57;;;;;;;5.40;2.63;;;;;;;8.88;78.87;102406.81;10457232;27;96696;-87
2023/12/15 08:32:04;;;;;;;5.35;2.30;;;;;;;8.93;78.28;102409.44;10457050;27;96590;-87
2023/12/15 08:37:08;;;;;;;4.18;2.53;;;;;;;8.95;78.01;102420.81;10456288;27;96879;-87
2023/12/15 08:42:13;;;;;;;3.30;1.80;;;;;;;8.99;77.87;102431.34;10456559;27;96767;-87
2023/12/15 08:47:20;;;;;;;3.97;2.35;;;;;;;9.06;77.73;102447.97;10457341;27;96636;-87
2023/12/15 08:52:24;;;;;;;4.03;2.63;;;;;;;9.27;77.32;102441.88;10456280;27;96641;-87
2023/12/15 08:57:28;;;;;;;5.72;2.88;;;;;;;9.43;76.05;102443.66;10454571;27;97446;-86
2023/12/15 09:02:34;;;;;;;4.45;2.55;;;;;;;9.55;76.44;102452.41;10454840;27;97245;-87
2023/12/15 09:07:40;;;;;;;4.60;2.88;;;;;;;9.66;75.62;102452.38;10456080;27;97681;-88
2023/12/15 09:12:45;;;;;;;3.72;2.50;;;;;;;9.78;75.09;102452.41;10455722;27;97145;-87
2023/12/15 09:17:51;;;;;;;4.22;2.53;;;;;;;9.89;74.11;102476.91;10454680;27;96819;-87
2023/12/15 09:22:56;;;;;;;4.72;2.97;;;;;;;10.03;73.51;102491.81;10455214;27;96709;-87
2023/12/15 09:28:03;;;;;;;6.25;3.00;;;;;;;10.09;73.78;102486.50;10455200;27;96685;-87
2023/12/15 09:33:11;;;;;;;5.63;3.00;;;;;;;10.17;74.07;102494.41;10454832;27;97371;-87
2023/12/15 09:38:15;;;;;;;6.18;3.00;;;;;;;10.26;73.47;102507.53;10454655;27;100320;-87
2023/12/15 09:43:19;;;;;;;5.53;2.70;;;;;;;10.39;72.83;102498.72;10455345;27;97539;-87
2023/12/15 09:48:27;;;;;;;5.10;2.80;;;;;;;10.51;72.51;102524.09;10455143;27;97117;-87
2023/12/15 09:53:36;;;;;;;5.90;2.80;;;;;;;10.59;71.49;102519.72;10453146;27;96877;-87
2023/12/15 09:58:42;;;;;;;4.95;2.83;;;;;;;10.72;71.78;102518.78;10454626;27;96873;-87
2023/12/15 10:03:48;;;;;;;4.25;2.67;;;;;;;10.82;71.03;102520.47;10453938;27;97109;-86
2023/12/15 10:08:53;;;;;;;8.27;3.08;;;;;;;10.85;70.68;102509.94;10451585;27;96759;-86
2023/12/15 10:14:07;;;;;;;5.60;3.08;;;;;;;11.01;70.21;102515.13;10454209;27;97184;-86
2023/12/15 10:19:14;;;;;;;6.40;2.83;;;;;;;11.18;70.42;102520.34;10453554;27;97247;-86
2023/12/15 10:24:20;;;;;;;5.85;2.78;;;;;;;11.25;69.75;102525.53;10453066;27;96772;-87
2023/12/15 10:29:25;;;;;;;6.72;3.35;;;;;;;11.18;69.34;102512.44;10460043;27;97786;-87
2023/12/15 10:34:33;;;;;;;6.93;3.53;;;;;;;11.32;68.90;102518.47;10460499;27;96681;-86
2023/12/15 10:39:39;;;;;;;6.13;3.10;;;;;;;11.32;68.76;102518.47;10460484;27;96644;-86
2023/12/15 10:44:44;;;;;;;;;;;;;;;11.33;68.49;102518.47;10459704;27;97090;-86
2023/12/15 10:49:54;;;;;;;5.20;3.07;;;;;;;11.25;68.74;102524.69;10460174;27;96705;-86
2023/12/15 10:55:03;;;;;;;6.70;3.33;;;;;;;11.41;68.83;102515.78;10460524;27;96704;-86
2023/12/15 11:00:10;;;;;;;5.70;3.33;;;;;;;11.54;67.84;102508.66;10460135;27;96878;-87
2023/12/15 11:05:18;;;;;;;6.45;3.13;;;;;;;11.79;67.54;102507.53;10459987;27;97243;-86
2023/12/15 11:10:36;;;;;;;6.97;3.20;;;;;;;11.72;66.97;102497.97;10459976;27;96575;-86
2023/12/15 11:15:42;;;;;;;4.95;2.75;;;;;;;11.72;67.44;102501.47;10457416;27;97426;-86
2023/12/15 11:20:50;;;;;;;5.75;3.17;;;;;;;11.89;67.11;102509.25;10459871;27;97281;-86
2023/12/15 11:26:00;;;;;;;7.50;3.72;;;;;;;11.90;66.28;102506.59;10459163;27;96551;-86
2023/12/15 11:31:22;;;;;;;4.90;2.83;;;;;;;12.05;65.97;102508.19;10458556;27;97174;-86
2023/12/15 11:36:30;;;;;;;4.85;2.95;;;;;;;12.14;65.43;102492.25;10454826;27;97323;-86
2023/12/15 11:41:35;;;;;;;5.95;2.67;;;;;;;12.31;65.71;102498.22;10457592;27;97269;-87
2023/12/15 11:46:40;;;;;;;6.03;3.03;;;;;;;12.32;65.23;102484.16;10458068;27;96770;-86
2023/12/15 11:51:46;;;;;;;;;;;;;;;12.34;64.60;102477.09;10458667;27;97284;-86
2023/12/15 11:56:50;;;;;;;4.28;2.28;;;;;;;12.54;64.52;102472.44;10457145;27;96766;-86
2023/12/15 12:01:55;;;;;;;4.47;2.33;;;;;;;12.57;64.14;102469.75;10458456;27;96577;-86
2023/12/15 12:07:02;;;;;;;5.38;2.53;;;;;;;12.63;63.51;102460.88;10456446;27;97096;-86
2023/12/15 12:12:07;;;;;;;4.15;2.13;;;;;;;12.86;62.96;102457.06;10426067;27;97162;-85
2023/12/15 12:17:12;;;;;;;6.05;2.72;;;;;;;12.91;62.52;102455.25;10457405;27;97391;-86
2023/12/15 12:22:19;;;;;;;3.77;2.20;;;;;;;12.95;62.57;102449.00;10457848;27;96660;-87
2023/12/15 12:27:32;;;;;;;4.57;1.90;;;;;;;13.03;62.09;102438.34;10455874;27;97017;-86
2023/12/15 12:32:37;;;;;;;4.30;2.25;;;;;;;13.14;62.57;102437.28;10456875;27;97208;-86
2023/12/15 12:37:44;;;;;;;5.07;2.20;;;;;;;13.15;62.63;102431.09;10456112;27;96706;-86
2023/12/15 12:42:48;;;;;;;4.70;2.53;;;;;;;13.20;61.86;102423.09;10456833;27;97691;-87
2023/12/15 12:47:54;;;;;;;5.03;3.03;;;;;;;13.28;62.12;102413.25;10456840;27;96538;-86
2023/12/15 12:53:01;;;;;;;5.65;2.63;;;;;;;13.28;61.70;102398.28;10456324;27;97110;-85
2023/12/15 12:58:05;;;;;;;5.95;2.65;;;;;;;13.32;62.08;102385.88;10454757;27;97415;-86
2023/12/15 13:03:09;;;;;;;5.50;2.77;;;;;;;13.40;61.75;102376.03;10456734;27;96718;-86
2023/12/15 13:08:17;;;;;;;6.55;3.30;;;;;;;13.51;61.86;102382.00;10456048;27;96888;-85
2023/12/15 13:13:22;;;;;;;5.68;2.65;;;;;;;13.74;60.77;102363.94;10456542;27;97339;-86
2023/12/15 13:18:27;;;;;;;4.30;2.78;;;;;;;14.99;57.45;102350.59;10454944;27;97239;-86
2023/12/15 13:23:34;;;;;;;3.67;2.28;;;;;;;16.03;55.15;102353.13;10455547;27;97342;-86
2023/12/15 13:28:39;;;;;;;3.38;1.90;;;;;;;15.71;55.05;102348.75;10455327;27;96746;-86
2023/12/15 13:33:47;;;;;;;3.30;2.25;;;;;;;14.84;56.78;102340.38;10455416;27;97544;-87
2023/12/15 13:38:57;;;;;;;4.05;2.28;;;;;;;14.45;57.79;102343.97;10454925;27;96666;-86
2023/12/15 13:44:01;;;;;;;3.70;2.13;;;;;;;14.26;58.00;102339.97;10454841;27;96728;-86
2023/12/15 13:49:07;;;;;;;2.73;2.00;;;;;;;14.21;58.61;102342.69;10454444;27;97405;-86
2023/12/15 13:54:14;;;;;;;3.03;1.95;;;;;;;14.23;58.51;102335.59;10455664;27;97307;-85
2023/12/15 13:59:19;;;;;;;5.13;2.25;;;;;;;14.05;58.90;102337.78;10454616;27;96605;-86
2023/12/15 14:04:23;;;;;;;5.47;1.95;;;;;;;14.08;59.01;102316.53;10452949;22;97029;-86
2023/12/15 14:09:29;;;;;;;4.38;2.20;;;;;;;14.11;58.94;102324.38;10396662;28;96734;-86
2023/12/15 14:14:33;;;;;;;3.25;1.90;;;;;;;14.10;59.36;102317.38;10375650;28;96717;-86
2023/12/15 14:19:39;;;;;;;2.97;1.95;;;;;;;14.16;59.79;102317.25;10370496;28;96686;-87
2023/12/15 14:24:46;;;;;;;2.97;2.05;;;;;;;14.22;59.41;102315.34;10374326;28;97075;-86
2023/12/15 14:29:50;;;;;;;4.72;2.20;;;;;;;14.22;59.16;102312.69;10370279;28;97196;-86
2023/12/15 14:34:56;;;;;;;4.07;2.20;;;;;;;14.21;59.51;102312.72;10369643;28;96782;-86
2023/12/15 14:40:05;;;;;;;3.30;2.03;;;;;;;14.31;59.46;102311.59;10369774;28;97153;-85
2023/12/15 14:45:10;;;;;;;3.78;2.00;;;;;;;15.53;56.67;102300.59;10370559;28;96678;-87
2023/12/15 14:50:16;;;;;;;8.20;4.10;;;;;;;16.14;55.25;102297.03;10369452;28;96800;-87
2023/12/15 14:55:23;;;;;;;3.33;2.20;;;;;;;16.45;53.88;102289.91;10369281;28;97507;-86
2023/12/15 15:00:27;;;;;;;4.97;2.55;;;;;;;17.05;53.54;102290.59;10354942;28;96686;-86
2023/12/15 15:05:34;;;;;;;4.38;2.60;;;;;;;17.07;52.78;102285.22;10327810;28;97563;-87
2023/12/15 15:10:46;;;;;;;3.38;2.53;;;;;;;17.24;51.61;102280.19;10327864;28;96738;-87
2023/12/15 15:15:51;;;;;;;2.72;1.88;;;;;;;17.26;52.48;102281.84;10350125;28;96693;-86
2023/12/15 15:20:55;;;;;;;3.72;2.08;;;;;;;17.25;52.20;102290.78;10375406;28;96796;-87
2023/12/15 15:26:02;;;;;;;3.35;1.77;;;;;;;17.22;51.69;102296.19;10375781;28;96652;-87
2023/12/15 15:31:08;;;;;;;3.05;1.73;;;;;;;16.98;52.12;102291.72;10375423;28;97166;-87
2023/12/15 15:36:13;;;;;;;2.58;1.60;;;;;;;16.75;51.72;102289.81;10376102;28;96887;-87
2023/12/15 15:41:21;;;;;;;2.72;1.83;;;;;;;16.83;52.55;102286.88;10374116;28;96955;-87
2023/12/15 15:46:26;;;;;;;3.38;1.92;;;;;;;16.98;52.76;102289.06;10375437;28;97489;-86
2023/12/15 15:51:32;;;;;;;2.42;1.58;;;;;;;16.86;52.55;102284.16;10373767;28;97065;-86
2023/12/15 15:56:38;;;;;;;3.25;1.45;;;;;;;16.86;52.43;102285.00;10375233;28;96943;-88
2023/12/15 16:01:43;;;;;;;3.00;1.85;;;;;;;16.81;53.36;102278.09;10374339;28;96784;-88
2023/12/15 16:06:48;;;;;;;2.88;1.55;;;;;;;16.32;53.84;102293.84;10372082;28;97108;-86
2023/12/15 16:11:54;;;;;;;3.22;1.80;;;;;;;15.90;55.60;102290.69;10374571;28;97008;-86
2023/12/15 16:16:59;;;;;;;2.72;1.80;;;;;;;15.39;56.44;102297.47;10373819;28;96627;-87
2023/12/15 16:22:04;;;;;;;2.60;1.42;;;;;;;15.17;57.07;102299.78;10373622;28;97138;-85
2023/12/15 16:27:10;;;;;;;2.30;1.50;;;;;;;14.85;58.11;102305.03;10373911;28;97157;-87
2023/12/15 16:32:15;;;;;;;3.72;2.15;;;;;;;14.62;58.59;102305.59;10373851;28;96680;-87
2023/12/15 16:37:19;;;;;;;3.53;1.85;;;;;;;14.46;59.23;102313.91;10373359;28;96951;-86
2023/12/15 16:42:25;;;;;;;4.67;2.20;;;;;;;14.27;60.19;102317.88;10372130;28;97505;-87
2023/12/15 16:47:29;;;;;;;4.38;2.33;;;;;;;14.12;60.79;102318.22;10373064;28;97241;-86
2023/12/15 16:52:33;;;;;;;3.72;2.30;;;;;;;13.95;61.60;102322.97;10372794;28;96723;-86
2023/12/15 16:57:41;;;;;;;7.83;2.60;;;;;;;13.85;61.76;102332.84;10361799;28;96979;-86
2023/12/15 17:02:46;;;;;;;4.88;2.78;;;;;;;13.78;62.13;102335.66;10372691;28;97323;-87
2023/12/15 17:07:50;;;;;;;5.25;3.15;;;;;;;13.62;63.51;102343.88;10370821;28;96673;-87
2023/12/15 17:12:58;;;;;;;6.07;3.00;;;;;;;13.54;63.83;102348.44;10372292;28;97239;-86
2023/12/15 17:18:03;;;;;;;6.82;3.25;;;;;;;13.51;63.88;102350.28;10331058;28;96734;-87
2023/12/15 17:23:13;;;;;;;6.80;3.33;;;;;;;13.45;64.26;102345.97;10331240;28;97219;-87
2023/12/15 17:28:19;;;;;;;5.55;3.55;;;;;;;13.43;64.11;102352.19;10330853;28;97565;-86
2023/12/15 17:33:25;;;;;;;7.82;3.70;;;;;;;13.29;65.24;102351.56;10358026;28;96746;-87
2023/12/15 17:38:30;;;;;;;7.68;3.47;;;;;;;13.33;64.95;102362.03;10371118;28;97142;-86
2023/12/15 17:43:37;;;;;;;5.93;3.30;;;;;;;13.31;65.21;102363.00;10371389;28;96820;-86
2023/12/15 17:48:41;;;;;;;5.53;3.20;;;;;;;13.26;65.02;102378.06;10370781;28;96799;-86
2023/12/15 17:53:46;;;;;;;5.93;3.17;;;;;;;13.26;65.19;102389.50;10370844;28;97277;-87
2023/12/15 17:58:53;;;;;;;6.67;3.33;;;;;;;13.28;65.25;102377.13;10370869;28;96711;-87
2023/12/15 18:03:57;;;;;;;4.78;3.15;;;;;;;13.35;64.91;102396.38;10329953;28;96767;-87
2023/12/15 18:09:04;;;;;;;6.10;3.58;;;;;;;13.37;64.92;102376.97;10329778;28;96807;-87
2023/12/15 18:14:10;;;;;;;6.85;2.90;;;;;;;13.33;64.91;102374.38;10328993;28;96656;-87
2023/12/15 18:19:16;;;;;;;6.47;3.05;;;;;;;13.31;65.06;102374.41;10329169;28;96737;-87
2023/12/15 18:24:20;;;;;;;3.60;1.98;;;;;;;13.42;64.38;102390.09;10355814;28;96754;-88
2023/12/15 18:29:27;;;;;;;8.63;2.90;;;;;;;13.31;64.66;102381.50;10369880;28;97081;-86
2023/12/15 18:34:32;;;;;;;4.35;2.70;;;;;;;13.44;64.27;102380.38;10369824;28;97325;-86
2023/12/15 18:39:38;;;;;;;5.13;2.80;;;;;;;13.35;64.58;102385.81;10369355;28;97197;-86
2023/12/15 18:44:44;;;;;;;5.55;2.55;;;;;;;13.27;64.91;102385.09;10369682;28;97234;-87
2023/12/15 18:49:49;;;;;;;3.90;2.22;;;;;;;13.12;65.75;102374.78;10374551;28;96872;-87
2023/12/15 18:54:53;;;;;;;3.67;2.10;;;;;;;13.03;66.10;102394.28;10377410;28;97312;-87
2023/12/15 19:00:00;;;;;;;5.05;2.95;;;;;;;12.99;66.29;102384.66;10377311;28;97455;-87
2023/12/15 19:05:05;;;;;;;4.00;2.67;;;;;;;12.92;66.73;102383.00;10375200;28;96927;-87
2023/12/15 19:10:10;;;;;;;4.72;2.35;;;;;;;12.82;67.18;102376.13;10375929;28;97294;-87
2023/12/15 19:15:18;;;;;;;4.80;2.63;;;;;;;12.70;67.46;102386.88;10374896;28;96686;-87
2023/12/15 19:20:23;;;;;;;3.72;2.10;;;;;;;12.62;67.86;102388.69;10375738;28;97133;-87
2023/12/15 19:25:27;;;;;;;3.42;2.10;;;;;;;12.69;67.60;102403.59;10375678;28;96659;-87
2023/12/15 19:30:34;;;;;;;3.90;2.20;;;;;;;12.70;67.32;102405.38;10375645;28;97317;-87
2023/12/15 19:35:41;;;;;;;3.40;2.22;;;;;;;12.78;67.39;102405.22;10375356;28;97202;-87
2023/12/15 19:40:45;;;;;;;3.72;2.00;;;;;;;13.00;66.10;102404.88;10374265;28;97521;-87
2023/12/15 19:45:53;;;;;;;3.27;1.93;;;;;;;13.08;65.80;102402.13;10374958;28;97239;-87
2023/12/15 19:50:58;;;;;;;3.00;1.90;;;;;;;13.14;65.58;102400.25;10375902;28;97094;-87
2023/12/15 19:56:02;;;;;;;3.75;2.10;;;;;;;13.14;65.41;102409.94;10375029;28;97369;-87
2023/12/15 20:01:09;;;;;;;3.57;1.93;;;;;;;13.16;65.47;102410.81;10373418;28;97240;-87
2023/12/15 20:06:14;;;;;;;3.60;1.80;;;;;;;13.16;65.04;102409.03;10373298;28;97055;-87
2023/12/15 20:11:18;;;;;;;4.25;1.90;;;;;;;13.18;64.92;102395.81;10374309;28;97347;-86
2023/12/15 20:16:24;;;;;;;3.60;1.70;;;;;;;13.16;64.94;102403.75;10373944;28;96676;-86
2023/12/15 20:21:30;;;;;;;3.33;1.60;;;;;;;13.13;64.84;102398.53;10374151;28;96877;-88
2023/12/15 20:26:34;;;;;;;2.72;1.27;;;;;;;13.10;65.17;102400.34;10373750;28;96836;-88
2023/12/15 20:31:43;;;;;;;2.73;1.80;;;;;;;13.11;64.98;102388.88;10373636;28;97347;-87
2023/12/15 20:36:48;;;;;;;3.22;1.75;;;;;;;13.12;64.94;102385.34;10371459;28;96966;-88
2023/12/15 20:41:53;;;;;;;2.83;1.70;;;;;;;13.16;64.53;102385.25;10373893;28;96782;-87
2023/12/15 20:47:03;;;;;;;1.98;1.23;;;;;;;13.21;64.08;102383.41;10373590;28;97447;-87
2023/12/15 20:52:07;;;;;;;3.75;1.10;;;;;;;13.23;64.15;102389.53;10372815;28;97193;-86
2023/12/15 20:57:12;;;;;;;3.10;1.10;;;;;;;13.19;64.21;102379.06;10369241;28;96730;-87
2023/12/15 21:02:18;;;;;;;3.78;1.40;;;;;;;13.21;63.65;102370.19;10372948;28;96822;-86
2023/12/15 21:07:23;;;;;;;2.25;1.15;;;;;;;13.30;63.23;102379.72;10372081;28;96858;-87
2023/12/15 21:12:28;;;;;;;3.03;1.55;;;;;;;13.27;62.92;102372.75;10371782;28;97088;-87
2023/12/15 21:17:36;;;;;;;2.80;1.40;;;;;;;13.24;63.47;102369.28;10371768;28;96763;-88
2023/12/15 21:22:42;;;;;;;2.83;1.45;;;;;;;13.24;63.02;102386.00;10371956;28;97323;-88
2023/12/15 21:27:46;;;;;;;1.55;1.00;;;;;;;13.19;63.10;102385.19;10371625;28;97441;-87
2023/12/15 21:32:53;;;;;;;2.73;1.67;;;;;;;13.19;63.25;102393.13;10371942;28;96780;-87
2023/12/15 21:37:58;;;;;;;1.73;1.15;;;;;;;13.24;62.88;102398.34;10371694;28;96862;-87
2023/12/15 21:43:02;;;;;;;1.55;1.02;;;;;;;13.14;63.23;102405.56;10370973;28;96875;-87
2023/12/15 21:48:10;;;;;;;1.63;1.20;;;;;;;13.16;63.14;102389.66;10370095;28;97882;-87
2023/12/15 21:53:15;;;;;;;3.40;1.85;;;;;;;13.17;63.20;102397.56;10370224;28;97144;-86
2023/12/15 21:58:19;;;;;;;;;;;;;;;13.11;63.27;102402.97;10369500;28;96798;-87
2023/12/15 22:03:27;;;;;;;2.63;1.10;;;;;;;13.07;63.30;102398.63;10370603;28;96784;-87
2023/12/15 22:08:31;;;;;;;2.63;1.40;;;;;;;13.11;63.37;102402.97;10370750;28;96660;-87
2023/12/15 22:13:36;;;;;;;2.08;1.38;;;;;;;13.13;63.11;102413.50;10370438;28;96692;-87
2023/12/15 22:18:42;;;;;;;2.10;1.20;;;;;;;13.09;63.23;102403.88;10370601;28;96835;-87
2023/12/15 22:23:46;;;;;;;2.63;1.42;;;;;;;12.97;63.90;102414.63;10374297;28;97114;-87
2023/12/15 22:28:51;;;;;;;2.83;1.50;;;;;;;13.00;63.59;102399.59;10377339;28;96579;-87
2023/12/15 22:33:59;;;;;;;2.93;1.33;;;;;;;13.01;63.55;102396.09;10377472;28;97098;-88
2023/12/15 22:39:04;;;;;;;2.42;1.40;;;;;;;12.97;63.89;102386.44;10374862;28;96999;-87
2023/12/15 22:44:09;;;;;;;2.50;1.40;;;;;;;12.96;64.03;102394.41;10376099;28;97110;-87
2023/12/15 22:49:16;;;;;;;1.45;1.15;;;;;;;12.90;64.13;102398.00;10377100;28;97264;-87
2023/12/15 22:54:22;;;;;;;1.85;1.15;;;;;;;12.86;64.67;102383.09;10376456;28;97046;-86
2023/12/15 22:59:26;;;;;;;;;;;;;;;12.81;64.74;102382.28;10376395;28;96912;-87
2023/12/15 23:04:32;;;;;;;2.67;1.10;;;;;;;12.78;64.86;102395.53;10376393;28;96702;-87
2023/12/15 23:09:37;;;;;;;2.80;1.58;;;;;;;12.78;64.94;102387.63;10376173;28;97030;-87
2023/12/15 23:14:42;;;;;;;;;;;;;;;12.80;64.70;102391.13;10377406;28;97261;-86
2023/12/15 23:19:49;;;;;;;2.08;1.27;;;;;;;12.83;64.11;102392.81;10376307;28;96767;-87
2023/12/15 23:24:53;;;;;;;1.85;1.13;;;;;;;12.81;64.54;102394.66;10376009;28;97285;-87
2023/12/15 23:30:00;;;;;;;4.20;1.30;;;;;;;12.84;64.21;102386.66;10374556;28;97064;-87
2023/12/15 23:35:09;;;;;;;1.83;1.10;;;;;;;12.87;64.21;102390.13;10375008;28;96722;-87